sensor_id;sensor_type;location;lat;lon;timestamp;P1;durP1;ratioP1;P2;durP2;ratioP2
44480;SDS011;30184;42.018;23.670;2023-07-29T00:01:49;4.28;;;2.53;;
44480;SDS011;30184;42.018;23.670;2023-07-29T00:04:18;4.00;;;2.25;;
44480;SDS011;30184;42.018;23.670;2023-07-29T00:06:48;2.85;;;1.90;;
44480;SDS011;30184;42.018;23.670;2023-07-29T00:09:17;3.67;;;2.00;;
44480;SDS011;30184;42.018;23.670;2023-07-29T00:11:48;4.80;;;2.88;;
44480;SDS011;30184;42.018;23.670;2023-07-29T00:14:18;3.30;;;2.35;;
44480;SDS011;30184;42.018;23.670;2023-07-29T00:16:47;8.80;;;2.67;;
44480;SDS011;30184;42.018;23.670;2023-07-29T00:19:16;4.50;;;2.83;;
44480;SDS011;30184;42.018;23.670;2023-07-29T00:21:45;4.22;;;2.22;;
44480;SDS011;30184;42.018;23.670;2023-07-29T00:24:14;3.92;;;2.42;;
44480;SDS011;30184;42.018;23.670;2023-07-29T00:26:43;4.43;;;2.40;;
44480;SDS011;30184;42.018;23.670;2023-07-29T00:29:14;4.20;;;2.50;;
44480;SDS011;30184;42.018;23.670;2023-07-29T00:31:43;5.50;;;2.30;;
44480;SDS011;30184;42.018;23.670;2023-07-29T00:34:13;5.75;;;2.38;;
44480;SDS011;30184;42.018;23.670;2023-07-29T00:36:47;5.85;;;2.63;;
44480;SDS011;30184;42.018;23.670;2023-07-29T00:39:16;3.85;;;2.03;;
44480;SDS011;30184;42.018;23.670;2023-07-29T00:41:46;3.85;;;2.13;;
44480;SDS011;30184;42.018;23.670;2023-07-29T00:44:17;5.18;;;2.92;;
44480;SDS011;30184;42.018;23.670;2023-07-29T00:46:46;4.03;;;2.40;;
44480;SDS011;30184;42.018;23.670;2023-07-29T00:49:20;4.35;;;2.53;;
44480;SDS011;30184;42.018;23.670;2023-07-29T00:51:50;4.53;;;2.75;;
44480;SDS011;30184;42.018;23.670;2023-07-29T00:54:19;3.78;;;2.28;;
44480;SDS011;30184;42.018;23.670;2023-07-29T00:56:49;4.03;;;2.60;;
44480;SDS011;30184;42.018;23.670;2023-07-29T00:59:19;6.32;;;2.53;;
44480;SDS011;30184;42.018;23.670;2023-07-29T01:01:49;4.55;;;2.35;;
44480;SDS011;30184;42.018;23.670;2023-07-29T01:04:18;3.95;;;2.63;;
44480;SDS011;30184;42.018;23.670;2023-07-29T01:06:50;4.47;;;2.55;;
44480;SDS011;30184;42.018;23.670;2023-07-29T01:09:30;2.67;;;2.05;;
44480;SDS011;30184;42.018;23.670;2023-07-29T01:12:08;3.55;;;2.22;;
44480;SDS011;30184;42.018;23.670;2023-07-29T01:14:47;6.63;;;2.17;;
44480;SDS011;30184;42.018;23.670;2023-07-29T01:17:25;4.68;;;2.28;;
44480;SDS011;30184;42.018;23.670;2023-07-29T01:20:00;6.93;;;2.72;;
44480;SDS011;30184;42.018;23.670;2023-07-29T01:22:33;4.15;;;2.42;;
44480;SDS011;30184;42.018;23.670;2023-07-29T01:25:05;4.97;;;2.80;;
44480;SDS011;30184;42.018;23.670;2023-07-29T01:27:35;3.45;;;2.20;;
44480;SDS011;30184;42.018;23.670;2023-07-29T01:30:05;5.70;;;2.80;;
44480;SDS011;30184;42.018;23.670;2023-07-29T01:32:38;5.38;;;2.50;;
44480;SDS011;30184;42.018;23.670;2023-07-29T01:35:17;3.58;;;2.05;;
44480;SDS011;30184;42.018;23.670;2023-07-29T01:37:53;3.15;;;2.10;;
44480;SDS011;30184;42.018;23.670;2023-07-29T01:40:26;5.03;;;2.33;;
44480;SDS011;30184;42.018;23.670;2023-07-29T01:42:56;3.90;;;2.40;;
44480;SDS011;30184;42.018;23.670;2023-07-29T01:45:26;5.32;;;2.50;;
44480;SDS011;30184;42.018;23.670;2023-07-29T01:47:55;3.25;;;2.00;;
44480;SDS011;30184;42.018;23.670;2023-07-29T01:50:24;5.95;;;2.20;;
44480;SDS011;30184;42.018;23.670;2023-07-29T01:52:53;4.57;;;2.25;;
44480;SDS011;30184;42.018;23.670;2023-07-29T01:55:23;4.03;;;2.30;;
44480;SDS011;30184;42.018;23.670;2023-07-29T01:57:55;4.53;;;2.70;;
44480;SDS011;30184;42.018;23.670;2023-07-29T02:00:25;4.30;;;2.42;;
44480;SDS011;30184;42.018;23.670;2023-07-29T02:02:54;4.45;;;2.58;;
44480;SDS011;30184;42.018;23.670;2023-07-29T02:05:24;4.35;;;2.17;;
44480;SDS011;30184;42.018;23.670;2023-07-29T02:07:53;3.22;;;2.17;;
44480;SDS011;30184;42.018;23.670;2023-07-29T02:10:22;6.57;;;2.85;;
44480;SDS011;30184;42.018;23.670;2023-07-29T02:12:52;3.28;;;2.15;;
44480;SDS011;30184;42.018;23.670;2023-07-29T02:15:23;4.63;;;2.60;;
44480;SDS011;30184;42.018;23.670;2023-07-29T02:17:52;3.67;;;2.15;;
44480;SDS011;30184;42.018;23.670;2023-07-29T02:20:21;4.35;;;2.40;;
44480;SDS011;30184;42.018;23.670;2023-07-29T02:22:56;4.90;;;2.60;;
44480;SDS011;30184;42.018;23.670;2023-07-29T02:25:25;4.90;;;2.38;;
44480;SDS011;30184;42.018;23.670;2023-07-29T02:27:54;4.20;;;2.28;;
44480;SDS011;30184;42.018;23.670;2023-07-29T02:30:25;3.63;;;2.35;;
44480;SDS011;30184;42.018;23.670;2023-07-29T02:32:55;5.75;;;3.10;;
44480;SDS011;30184;42.018;23.670;2023-07-29T02:35:24;5.20;;;2.40;;
44480;SDS011;30184;42.018;23.670;2023-07-29T02:37:53;3.97;;;2.13;;
44480;SDS011;30184;42.018;23.670;2023-07-29T02:40:23;3.33;;;1.90;;
44480;SDS011;30184;42.018;23.670;2023-07-29T02:42:54;5.07;;;2.33;;
44480;SDS011;30184;42.018;23.670;2023-07-29T02:45:23;4.57;;;2.80;;
44480;SDS011;30184;42.018;23.670;2023-07-29T02:47:54;4.60;;;2.72;;
44480;SDS011;30184;42.018;23.670;2023-07-29T02:50:24;4.55;;;2.63;;
44480;SDS011;30184;42.018;23.670;2023-07-29T02:52:53;2.85;;;2.28;;
44480;SDS011;30184;42.018;23.670;2023-07-29T02:55:22;4.30;;;2.55;;
44480;SDS011;30184;42.018;23.670;2023-07-29T02:57:52;7.03;;;3.10;;
44480;SDS011;30184;42.018;23.670;2023-07-29T03:00:21;7.35;;;3.38;;
44480;SDS011;30184;42.018;23.670;2023-07-29T03:02:52;6.10;;;3.00;;
44480;SDS011;30184;42.018;23.670;2023-07-29T03:05:21;5.93;;;2.42;;
44480;SDS011;30184;42.018;23.670;2023-07-29T03:07:50;4.18;;;2.80;;
44480;SDS011;30184;42.018;23.670;2023-07-29T03:10:20;5.25;;;2.85;;
44480;SDS011;30184;42.018;23.670;2023-07-29T03:12:49;6.68;;;2.67;;
44480;SDS011;30184;42.018;23.670;2023-07-29T03:15:19;4.28;;;3.20;;
44480;SDS011;30184;42.018;23.670;2023-07-29T03:17:52;7.25;;;2.83;;
44480;SDS011;30184;42.018;23.670;2023-07-29T03:20:22;5.95;;;2.88;;
44480;SDS011;30184;42.018;23.670;2023-07-29T03:22:51;6.18;;;2.63;;
44480;SDS011;30184;42.018;23.670;2023-07-29T03:25:21;5.05;;;3.00;;
44480;SDS011;30184;42.018;23.670;2023-07-29T03:27:50;4.55;;;2.65;;
44480;SDS011;30184;42.018;23.670;2023-07-29T03:30:19;5.57;;;2.90;;
44480;SDS011;30184;42.018;23.670;2023-07-29T03:32:50;7.15;;;2.58;;
44480;SDS011;30184;42.018;23.670;2023-07-29T03:35:21;4.32;;;2.70;;
44480;SDS011;30184;42.018;23.670;2023-07-29T03:37:51;5.15;;;2.83;;
44480;SDS011;30184;42.018;23.670;2023-07-29T03:40:20;5.32;;;2.60;;
44480;SDS011;30184;42.018;23.670;2023-07-29T03:42:50;4.90;;;2.65;;
44480;SDS011;30184;42.018;23.670;2023-07-29T03:45:19;5.82;;;3.05;;
44480;SDS011;30184;42.018;23.670;2023-07-29T03:47:48;5.18;;;2.67;;
44480;SDS011;30184;42.018;23.670;2023-07-29T03:50:19;6.03;;;2.38;;
44480;SDS011;30184;42.018;23.670;2023-07-29T03:52:48;7.43;;;2.45;;
44480;SDS011;30184;42.018;23.670;2023-07-29T03:55:18;7.60;;;3.53;;
44480;SDS011;30184;42.018;23.670;2023-07-29T03:57:48;4.88;;;2.40;;
44480;SDS011;30184;42.018;23.670;2023-07-29T04:00:17;7.22;;;3.10;;
44480;SDS011;30184;42.018;23.670;2023-07-29T04:02:48;5.13;;;2.65;;
44480;SDS011;30184;42.018;23.670;2023-07-29T04:05:19;8.05;;;2.88;;
44480;SDS011;30184;42.018;23.670;2023-07-29T04:07:49;4.45;;;2.17;;
44480;SDS011;30184;42.018;23.670;2023-07-29T04:10:19;4.95;;;2.20;;
44480;SDS011;30184;42.018;23.670;2023-07-29T04:12:49;4.75;;;2.67;;
44480;SDS011;30184;42.018;23.670;2023-07-29T04:15:18;4.32;;;2.55;;
44480;SDS011;30184;42.018;23.670;2023-07-29T04:17:48;4.97;;;2.50;;
44480;SDS011;30184;42.018;23.670;2023-07-29T04:20:17;5.57;;;2.45;;
44480;SDS011;30184;42.018;23.670;2023-07-29T04:22:48;5.43;;;2.80;;
44480;SDS011;30184;42.018;23.670;2023-07-29T04:25:17;3.47;;;2.08;;
44480;SDS011;30184;42.018;23.670;2023-07-29T04:27:47;4.00;;;2.45;;
44480;SDS011;30184;42.018;23.670;2023-07-29T04:30:17;4.75;;;2.70;;
44480;SDS011;30184;42.018;23.670;2023-07-29T04:32:46;5.53;;;2.63;;
44480;SDS011;30184;42.018;23.670;2023-07-29T04:35:16;6.63;;;3.42;;
44480;SDS011;30184;42.018;23.670;2023-07-29T04:37:45;4.55;;;2.72;;
44480;SDS011;30184;42.018;23.670;2023-07-29T04:40:17;9.00;;;2.47;;
44480;SDS011;30184;42.018;23.670;2023-07-29T04:42:46;4.40;;;2.05;;
44480;SDS011;30184;42.018;23.670;2023-07-29T04:45:16;3.60;;;2.40;;
44480;SDS011;30184;42.018;23.670;2023-07-29T04:47:45;4.68;;;2.10;;
44480;SDS011;30184;42.018;23.670;2023-07-29T04:50:14;3.72;;;2.20;;
44480;SDS011;30184;42.018;23.670;2023-07-29T04:52:43;3.70;;;1.98;;
44480;SDS011;30184;42.018;23.670;2023-07-29T04:55:13;4.18;;;2.80;;
44480;SDS011;30184;42.018;23.670;2023-07-29T04:57:43;3.22;;;2.30;;
44480;SDS011;30184;42.018;23.670;2023-07-29T05:00:13;4.55;;;2.22;;
44480;SDS011;30184;42.018;23.670;2023-07-29T05:02:42;7.85;;;2.28;;
44480;SDS011;30184;42.018;23.670;2023-07-29T05:05:12;3.60;;;2.35;;
44480;SDS011;30184;42.018;23.670;2023-07-29T05:07:41;5.78;;;2.92;;
44480;SDS011;30184;42.018;23.670;2023-07-29T05:10:10;3.55;;;2.17;;
44480;SDS011;30184;42.018;23.670;2023-07-29T05:12:40;4.70;;;2.42;;
44480;SDS011;30184;42.018;23.670;2023-07-29T05:15:11;4.88;;;2.40;;
44480;SDS011;30184;42.018;23.670;2023-07-29T05:17:40;5.30;;;2.47;;
44480;SDS011;30184;42.018;23.670;2023-07-29T05:20:10;5.43;;;2.30;;
44480;SDS011;30184;42.018;23.670;2023-07-29T05:22:39;4.45;;;2.25;;
44480;SDS011;30184;42.018;23.670;2023-07-29T05:25:08;5.70;;;2.30;;
44480;SDS011;30184;42.018;23.670;2023-07-29T05:27:37;3.70;;;1.98;;
44480;SDS011;30184;42.018;23.670;2023-07-29T05:30:07;8.18;;;4.07;;
44480;SDS011;30184;42.018;23.670;2023-07-29T05:32:38;13.98;;;6.25;;
44480;SDS011;30184;42.018;23.670;2023-07-29T05:35:08;3.47;;;2.42;;
44480;SDS011;30184;42.018;23.670;2023-07-29T05:37:38;5.45;;;3.40;;
44480;SDS011;30184;42.018;23.670;2023-07-29T05:40:07;5.18;;;3.13;;
44480;SDS011;30184;42.018;23.670;2023-07-29T05:42:39;3.45;;;2.30;;
44480;SDS011;30184;42.018;23.670;2023-07-29T05:45:08;4.10;;;2.22;;
44480;SDS011;30184;42.018;23.670;2023-07-29T05:47:39;4.30;;;2.40;;
44480;SDS011;30184;42.018;23.670;2023-07-29T05:50:08;3.78;;;2.25;;
44480;SDS011;30184;42.018;23.670;2023-07-29T05:52:38;3.35;;;2.20;;
44480;SDS011;30184;42.018;23.670;2023-07-29T05:55:07;6.03;;;2.67;;
44480;SDS011;30184;42.018;23.670;2023-07-29T05:57:37;3.10;;;1.63;;
44480;SDS011;30184;42.018;23.670;2023-07-29T06:00:08;2.80;;;1.75;;
44480;SDS011;30184;42.018;23.670;2023-07-29T06:02:42;2.47;;;1.70;;
44480;SDS011;30184;42.018;23.670;2023-07-29T06:05:16;3.03;;;1.73;;
44480;SDS011;30184;42.018;23.670;2023-07-29T06:07:45;3.03;;;1.80;;
44480;SDS011;30184;42.018;23.670;2023-07-29T06:10:15;3.08;;;2.05;;
44480;SDS011;30184;42.018;23.670;2023-07-29T06:12:47;3.53;;;2.30;;
44480;SDS011;30184;42.018;23.670;2023-07-29T06:15:16;4.93;;;2.72;;
44480;SDS011;30184;42.018;23.670;2023-07-29T06:17:50;2.53;;;1.75;;
44480;SDS011;30184;42.018;23.670;2023-07-29T06:20:21;2.33;;;1.65;;
44480;SDS011;30184;42.018;23.670;2023-07-29T06:22:50;4.57;;;2.28;;
44480;SDS011;30184;42.018;23.670;2023-07-29T06:25:20;6.97;;;3.30;;
44480;SDS011;30184;42.018;23.670;2023-07-29T06:27:50;6.68;;;2.88;;
44480;SDS011;30184;42.018;23.670;2023-07-29T06:30:19;10.52;;;2.78;;
44480;SDS011;30184;42.018;23.670;2023-07-29T06:32:48;4.13;;;2.25;;
44480;SDS011;30184;42.018;23.670;2023-07-29T06:35:19;6.35;;;3.28;;
44480;SDS011;30184;42.018;23.670;2023-07-29T06:37:48;7.68;;;3.00;;
44480;SDS011;30184;42.018;23.670;2023-07-29T06:40:17;4.82;;;2.90;;
44480;SDS011;30184;42.018;23.670;2023-07-29T06:42:46;8.55;;;3.33;;
44480;SDS011;30184;42.018;23.670;2023-07-29T06:45:15;5.30;;;2.90;;
44480;SDS011;30184;42.018;23.670;2023-07-29T06:47:45;3.95;;;2.30;;
44480;SDS011;30184;42.018;23.670;2023-07-29T06:50:14;5.18;;;2.67;;
44480;SDS011;30184;42.018;23.670;2023-07-29T06:52:44;4.88;;;2.67;;
44480;SDS011;30184;42.018;23.670;2023-07-29T06:55:14;6.40;;;2.85;;
44480;SDS011;30184;42.018;23.670;2023-07-29T06:57:43;4.35;;;2.35;;
44480;SDS011;30184;42.018;23.670;2023-07-29T07:00:12;4.95;;;2.33;;
44480;SDS011;30184;42.018;23.670;2023-07-29T07:02:42;4.47;;;2.50;;
44480;SDS011;30184;42.018;23.670;2023-07-29T07:05:11;6.18;;;2.60;;
44480;SDS011;30184;42.018;23.670;2023-07-29T07:07:40;4.00;;;2.22;;
44480;SDS011;30184;42.018;23.670;2023-07-29T07:10:11;5.20;;;2.72;;
44480;SDS011;30184;42.018;23.670;2023-07-29T07:12:40;3.58;;;2.20;;
44480;SDS011;30184;42.018;23.670;2023-07-29T07:15:09;3.72;;;1.95;;
44480;SDS011;30184;42.018;23.670;2023-07-29T07:17:38;4.68;;;2.20;;
44480;SDS011;30184;42.018;23.670;2023-07-29T07:20:07;3.80;;;2.03;;
44480;SDS011;30184;42.018;23.670;2023-07-29T07:22:37;5.25;;;2.63;;
44480;SDS011;30184;42.018;23.670;2023-07-29T07:25:07;3.92;;;2.00;;
44480;SDS011;30184;42.018;23.670;2023-07-29T07:27:37;2.72;;;1.83;;
44480;SDS011;30184;42.018;23.670;2023-07-29T07:30:07;5.03;;;2.35;;
44480;SDS011;30184;42.018;23.670;2023-07-29T07:32:36;4.72;;;2.22;;
44480;SDS011;30184;42.018;23.670;2023-07-29T07:35:06;3.40;;;2.13;;
44480;SDS011;30184;42.018;23.670;2023-07-29T07:37:35;3.78;;;1.88;;
44480;SDS011;30184;42.018;23.670;2023-07-29T07:40:05;3.97;;;1.60;;
44480;SDS011;30184;42.018;23.670;2023-07-29T07:42:35;4.13;;;1.80;;
44480;SDS011;30184;42.018;23.670;2023-07-29T07:45:06;2.53;;;1.65;;
44480;SDS011;30184;42.018;23.670;2023-07-29T07:47:35;6.22;;;1.90;;
44480;SDS011;30184;42.018;23.670;2023-07-29T07:50:05;3.08;;;1.77;;
44480;SDS011;30184;42.018;23.670;2023-07-29T07:52:34;4.18;;;1.88;;
44480;SDS011;30184;42.018;23.670;2023-07-29T07:55:03;4.10;;;2.13;;
44480;SDS011;30184;42.018;23.670;2023-07-29T07:57:33;3.15;;;1.75;;
44480;SDS011;30184;42.018;23.670;2023-07-29T08:00:02;4.50;;;1.85;;
44480;SDS011;30184;42.018;23.670;2023-07-29T08:02:40;2.40;;;1.50;;
44480;SDS011;30184;42.018;23.670;2023-07-29T08:05:09;2.88;;;1.30;;
44480;SDS011;30184;42.018;23.670;2023-07-29T08:07:39;2.55;;;1.50;;
44480;SDS011;30184;42.018;23.670;2023-07-29T08:10:08;1.85;;;1.10;;
44480;SDS011;30184;42.018;23.670;2023-07-29T08:12:37;2.92;;;1.60;;
44480;SDS011;30184;42.018;23.670;2023-07-29T08:15:07;4.03;;;1.88;;
44480;SDS011;30184;42.018;23.670;2023-07-29T08:17:36;4.90;;;2.00;;
44480;SDS011;30184;42.018;23.670;2023-07-29T08:20:08;4.03;;;1.85;;
44480;SDS011;30184;42.018;23.670;2023-07-29T08:22:37;2.95;;;1.58;;
44480;SDS011;30184;42.018;23.670;2023-07-29T08:25:07;3.45;;;1.58;;
44480;SDS011;30184;42.018;23.670;2023-07-29T08:27:36;3.28;;;1.70;;
44480;SDS011;30184;42.018;23.670;2023-07-29T08:30:06;4.07;;;1.52;;
44480;SDS011;30184;42.018;23.670;2023-07-29T08:32:36;2.10;;;1.10;;
44480;SDS011;30184;42.018;23.670;2023-07-29T08:35:07;2.28;;;1.33;;
44480;SDS011;30184;42.018;23.670;2023-07-29T08:37:36;3.00;;;1.42;;
44480;SDS011;30184;42.018;23.670;2023-07-29T08:40:06;3.22;;;1.60;;
44480;SDS011;30184;42.018;23.670;2023-07-29T08:42:36;2.97;;;1.63;;
44480;SDS011;30184;42.018;23.670;2023-07-29T08:45:07;3.35;;;1.30;;
44480;SDS011;30184;42.018;23.670;2023-07-29T08:47:38;5.22;;;1.45;;
44480;SDS011;30184;42.018;23.670;2023-07-29T08:50:09;5.35;;;2.45;;
44480;SDS011;30184;42.018;23.670;2023-07-29T08:52:40;3.53;;;1.58;;
44480;SDS011;30184;42.018;23.670;2023-07-29T08:55:11;5.25;;;1.95;;
44480;SDS011;30184;42.018;23.670;2023-07-29T08:57:41;3.90;;;1.52;;
44480;SDS011;30184;42.018;23.670;2023-07-29T09:00:10;4.82;;;1.80;;
44480;SDS011;30184;42.018;23.670;2023-07-29T09:02:40;3.80;;;1.50;;
44480;SDS011;30184;42.018;23.670;2023-07-29T09:05:11;2.20;;;1.35;;
44480;SDS011;30184;42.018;23.670;2023-07-29T09:07:40;3.25;;;1.65;;
44480;SDS011;30184;42.018;23.670;2023-07-29T09:10:10;3.65;;;2.22;;
44480;SDS011;30184;42.018;23.670;2023-07-29T09:12:41;3.10;;;1.50;;
44480;SDS011;30184;42.018;23.670;2023-07-29T09:15:11;2.97;;;1.50;;
44480;SDS011;30184;42.018;23.670;2023-07-29T09:17:41;8.18;;;1.60;;
44480;SDS011;30184;42.018;23.670;2023-07-29T09:20:13;4.60;;;1.70;;
44480;SDS011;30184;42.018;23.670;2023-07-29T09:22:44;2.92;;;1.48;;
44480;SDS011;30184;42.018;23.670;2023-07-29T09:25:14;2.67;;;1.50;;
44480;SDS011;30184;42.018;23.670;2023-07-29T09:27:43;2.83;;;1.50;;
44480;SDS011;30184;42.018;23.670;2023-07-29T09:30:15;3.95;;;1.60;;
44480;SDS011;30184;42.018;23.670;2023-07-29T09:32:52;5.22;;;1.25;;
44480;SDS011;30184;42.018;23.670;2023-07-29T09:35:26;2.30;;;1.35;;
44480;SDS011;30184;42.018;23.670;2023-07-29T09:37:56;2.25;;;1.40;;
44480;SDS011;30184;42.018;23.670;2023-07-29T09:40:26;2.88;;;1.52;;
44480;SDS011;30184;42.018;23.670;2023-07-29T09:42:55;2.88;;;1.50;;
44480;SDS011;30184;42.018;23.670;2023-07-29T09:45:25;3.30;;;1.42;;
44480;SDS011;30184;42.018;23.670;2023-07-29T09:47:56;4.00;;;1.70;;
44480;SDS011;30184;42.018;23.670;2023-07-29T09:50:28;3.45;;;1.88;;
44480;SDS011;30184;42.018;23.670;2023-07-29T09:52:58;4.18;;;1.65;;
44480;SDS011;30184;42.018;23.670;2023-07-29T09:55:28;2.63;;;1.55;;
44480;SDS011;30184;42.018;23.670;2023-07-29T09:57:58;3.65;;;1.55;;
44480;SDS011;30184;42.018;23.670;2023-07-29T10:00:31;4.65;;;1.60;;
44480;SDS011;30184;42.018;23.670;2023-07-29T10:03:06;2.57;;;1.30;;
44480;SDS011;30184;42.018;23.670;2023-07-29T10:05:37;2.25;;;1.30;;
44480;SDS011;30184;42.018;23.670;2023-07-29T10:08:08;3.47;;;1.40;;
44480;SDS011;30184;42.018;23.670;2023-07-29T10:10:40;1.70;;;1.23;;
44480;SDS011;30184;42.018;23.670;2023-07-29T10:13:10;3.15;;;1.55;;
44480;SDS011;30184;42.018;23.670;2023-07-29T10:15:41;1.92;;;1.40;;
44480;SDS011;30184;42.018;23.670;2023-07-29T10:21:42;2.38;;;1.35;;
44480;SDS011;30184;42.018;23.670;2023-07-29T10:24:18;7.00;;;1.27;;
44480;SDS011;30184;42.018;23.670;2023-07-29T10:26:57;6.15;;;2.70;;
44480;SDS011;30184;42.018;23.670;2023-07-29T10:29:28;2.35;;;1.33;;
44480;SDS011;30184;42.018;23.670;2023-07-29T10:32:01;4.60;;;1.50;;
44480;SDS011;30184;42.018;23.670;2023-07-29T10:34:31;4.18;;;1.27;;
44480;SDS011;30184;42.018;23.670;2023-07-29T10:37:03;5.35;;;1.70;;
44480;SDS011;30184;42.018;23.670;2023-07-29T10:39:37;2.03;;;0.95;;
44480;SDS011;30184;42.018;23.670;2023-07-29T10:42:07;2.78;;;1.25;;
44480;SDS011;30184;42.018;23.670;2023-07-29T10:44:46;2.40;;;1.50;;
44480;SDS011;30184;42.018;23.670;2023-07-29T10:47:18;3.45;;;1.42;;
44480;SDS011;30184;42.018;23.670;2023-07-29T10:49:50;2.60;;;1.30;;
44480;SDS011;30184;42.018;23.670;2023-07-29T10:52:30;3.58;;;2.13;;
44480;SDS011;30184;42.018;23.670;2023-07-29T10:55:22;2.75;;;1.20;;
44480;SDS011;30184;42.018;23.670;2023-07-29T10:58:04;2.85;;;1.13;;
44480;SDS011;30184;42.018;23.670;2023-07-29T11:00:35;2.67;;;1.55;;
44480;SDS011;30184;42.018;23.670;2023-07-29T11:03:05;2.97;;;1.40;;
44480;SDS011;30184;42.018;23.670;2023-07-29T11:05:42;2.03;;;1.27;;
44480;SDS011;30184;42.018;23.670;2023-07-29T11:08:21;2.45;;;1.40;;
44480;SDS011;30184;42.018;23.670;2023-07-29T11:10:59;2.55;;;1.50;;
44480;SDS011;30184;42.018;23.670;2023-07-29T11:13:31;3.03;;;1.38;;
44480;SDS011;30184;42.018;23.670;2023-07-29T11:16:01;1.73;;;1.15;;
44480;SDS011;30184;42.018;23.670;2023-07-29T11:18:31;2.75;;;1.63;;
44480;SDS011;30184;42.018;23.670;2023-07-29T11:21:04;1.98;;;1.13;;
44480;SDS011;30184;42.018;23.670;2023-07-29T11:23:36;1.95;;;1.20;;
44480;SDS011;30184;42.018;23.670;2023-07-29T11:26:05;2.58;;;1.20;;
44480;SDS011;30184;42.018;23.670;2023-07-29T11:28:39;1.85;;;1.17;;
44480;SDS011;30184;42.018;23.670;2023-07-29T11:31:08;2.47;;;1.20;;
44480;SDS011;30184;42.018;23.670;2023-07-29T11:33:38;2.55;;;1.45;;
44480;SDS011;30184;42.018;23.670;2023-07-29T11:36:17;3.55;;;1.73;;
44480;SDS011;30184;42.018;23.670;2023-07-29T11:38:49;1.88;;;1.10;;
44480;SDS011;30184;42.018;23.670;2023-07-29T11:41:19;2.17;;;1.05;;
44480;SDS011;30184;42.018;23.670;2023-07-29T11:43:49;2.28;;;0.95;;
44480;SDS011;30184;42.018;23.670;2023-07-29T11:46:20;1.88;;;1.20;;
44480;SDS011;30184;42.018;23.670;2023-07-29T11:48:53;1.85;;;1.15;;
44480;SDS011;30184;42.018;23.670;2023-07-29T11:51:25;3.58;;;1.40;;
44480;SDS011;30184;42.018;23.670;2023-07-29T11:53:56;1.83;;;1.00;;
44480;SDS011;30184;42.018;23.670;2023-07-29T11:56:26;1.80;;;1.20;;
44480;SDS011;30184;42.018;23.670;2023-07-29T11:58:57;2.47;;;1.25;;
44480;SDS011;30184;42.018;23.670;2023-07-29T12:01:27;1.88;;;1.27;;
44480;SDS011;30184;42.018;23.670;2023-07-29T12:03:56;2.85;;;1.45;;
44480;SDS011;30184;42.018;23.670;2023-07-29T12:06:27;2.92;;;1.38;;
44480;SDS011;30184;42.018;23.670;2023-07-29T12:09:00;2.88;;;1.20;;
44480;SDS011;30184;42.018;23.670;2023-07-29T12:11:29;2.22;;;1.10;;
44480;SDS011;30184;42.018;23.670;2023-07-29T12:13:59;2.72;;;1.38;;
44480;SDS011;30184;42.018;23.670;2023-07-29T12:16:29;2.42;;;1.35;;
44480;SDS011;30184;42.018;23.670;2023-07-29T12:19:02;4.55;;;1.35;;
44480;SDS011;30184;42.018;23.670;2023-07-29T12:21:32;2.65;;;1.50;;
44480;SDS011;30184;42.018;23.670;2023-07-29T12:24:04;3.05;;;1.20;;
44480;SDS011;30184;42.018;23.670;2023-07-29T12:26:35;1.75;;;1.02;;
44480;SDS011;30184;42.018;23.670;2023-07-29T12:29:11;2.42;;;1.40;;
44480;SDS011;30184;42.018;23.670;2023-07-29T12:31:41;3.33;;;1.38;;
44480;SDS011;30184;42.018;23.670;2023-07-29T12:34:16;2.08;;;1.40;;
44480;SDS011;30184;42.018;23.670;2023-07-29T12:36:46;2.05;;;1.10;;
44480;SDS011;30184;42.018;23.670;2023-07-29T12:39:19;4.38;;;1.30;;
44480;SDS011;30184;42.018;23.670;2023-07-29T12:41:50;1.85;;;1.20;;
44480;SDS011;30184;42.018;23.670;2023-07-29T12:44:22;2.00;;;1.05;;
44480;SDS011;30184;42.018;23.670;2023-07-29T12:46:52;2.15;;;1.20;;
44480;SDS011;30184;42.018;23.670;2023-07-29T12:49:22;2.35;;;1.23;;
44480;SDS011;30184;42.018;23.670;2023-07-29T12:51:52;2.10;;;1.17;;
44480;SDS011;30184;42.018;23.670;2023-07-29T12:54:23;2.63;;;1.20;;
44480;SDS011;30184;42.018;23.670;2023-07-29T12:56:52;2.47;;;1.48;;
44480;SDS011;30184;42.018;23.670;2023-07-29T12:59:22;2.08;;;1.13;;
44480;SDS011;30184;42.018;23.670;2023-07-29T13:01:51;2.95;;;1.13;;
44480;SDS011;30184;42.018;23.670;2023-07-29T13:04:20;4.18;;;1.33;;
44480;SDS011;30184;42.018;23.670;2023-07-29T13:06:50;2.42;;;1.25;;
44480;SDS011;30184;42.018;23.670;2023-07-29T13:09:20;1.92;;;1.10;;
44480;SDS011;30184;42.018;23.670;2023-07-29T13:11:50;2.10;;;1.10;;
44480;SDS011;30184;42.018;23.670;2023-07-29T13:14:20;2.72;;;1.30;;
44480;SDS011;30184;42.018;23.670;2023-07-29T13:16:49;2.45;;;1.45;;
44480;SDS011;30184;42.018;23.670;2023-07-29T13:19:19;2.05;;;1.17;;
44480;SDS011;30184;42.018;23.670;2023-07-29T13:21:48;1.75;;;1.10;;
44480;SDS011;30184;42.018;23.670;2023-07-29T13:24:17;2.08;;;1.13;;
44480;SDS011;30184;42.018;23.670;2023-07-29T13:26:47;4.10;;;2.28;;
44480;SDS011;30184;42.018;23.670;2023-07-29T13:29:18;3.15;;;1.38;;
44480;SDS011;30184;42.018;23.670;2023-07-29T13:31:47;1.80;;;1.13;;
44480;SDS011;30184;42.018;23.670;2023-07-29T13:34:16;2.22;;;1.30;;
44480;SDS011;30184;42.018;23.670;2023-07-29T13:36:45;3.00;;;1.67;;
44480;SDS011;30184;42.018;23.670;2023-07-29T13:39:15;2.97;;;1.10;;
44480;SDS011;30184;42.018;23.670;2023-07-29T13:41:44;2.47;;;1.50;;
44480;SDS011;30184;42.018;23.670;2023-07-29T13:44:13;3.45;;;1.35;;
44480;SDS011;30184;42.018;23.670;2023-07-29T13:46:44;1.63;;;1.13;;
44480;SDS011;30184;42.018;23.670;2023-07-29T13:49:13;5.82;;;1.73;;
44480;SDS011;30184;42.018;23.670;2023-07-29T13:51:43;2.53;;;1.30;;
44480;SDS011;30184;42.018;23.670;2023-07-29T13:54:12;1.80;;;1.40;;
44480;SDS011;30184;42.018;23.670;2023-07-29T13:56:41;2.75;;;1.60;;
44480;SDS011;30184;42.018;23.670;2023-07-29T13:59:11;4.28;;;1.40;;
44480;SDS011;30184;42.018;23.670;2023-07-29T14:01:41;5.45;;;2.08;;
44480;SDS011;30184;42.018;23.670;2023-07-29T14:04:12;19.83;;;8.38;;
44480;SDS011;30184;42.018;23.670;2023-07-29T14:06:42;21.17;;;6.28;;
44480;SDS011;30184;42.018;23.670;2023-07-29T14:09:14;8.50;;;2.90;;
44480;SDS011;30184;42.018;23.670;2023-07-29T14:11:43;3.05;;;1.70;;
44480;SDS011;30184;42.018;23.670;2023-07-29T14:14:13;4.40;;;1.40;;
44480;SDS011;30184;42.018;23.670;2023-07-29T14:16:42;3.08;;;2.03;;
44480;SDS011;30184;42.018;23.670;2023-07-29T14:19:12;4.68;;;1.90;;
44480;SDS011;30184;42.018;23.670;2023-07-29T14:21:42;4.25;;;1.85;;
44480;SDS011;30184;42.018;23.670;2023-07-29T14:24:11;2.92;;;1.77;;
44480;SDS011;30184;42.018;23.670;2023-07-29T14:26:40;3.55;;;1.83;;
44480;SDS011;30184;42.018;23.670;2023-07-29T14:29:10;4.78;;;1.50;;
44480;SDS011;30184;42.018;23.670;2023-07-29T14:31:39;3.88;;;1.13;;
44480;SDS011;30184;42.018;23.670;2023-07-29T14:34:08;2.22;;;1.20;;
44480;SDS011;30184;42.018;23.670;2023-07-29T14:36:39;7.32;;;3.55;;
44480;SDS011;30184;42.018;23.670;2023-07-29T14:39:08;19.77;;;10.50;;
44480;SDS011;30184;42.018;23.670;2023-07-29T14:41:38;10.55;;;6.00;;
44480;SDS011;30184;42.018;23.670;2023-07-29T14:44:07;3.72;;;1.80;;
44480;SDS011;30184;42.018;23.670;2023-07-29T14:46:36;4.50;;;1.65;;
44480;SDS011;30184;42.018;23.670;2023-07-29T14:49:06;4.78;;;1.50;;
44480;SDS011;30184;42.018;23.670;2023-07-29T14:51:36;6.88;;;2.35;;
44480;SDS011;30184;42.018;23.670;2023-07-29T14:54:06;3.47;;;1.92;;
44480;SDS011;30184;42.018;23.670;2023-07-29T14:56:36;3.45;;;1.90;;